createdAt,value
2018-09-05T00:01:53.780Z,18.70
2018-09-05T00:04:21.254Z,18.60
2018-09-05T00:06:48.710Z,18.50
2018-09-05T00:09:16.274Z,18.50
2018-09-05T00:11:43.754Z,18.50
2018-09-05T00:14:12.018Z,18.70
2018-09-05T00:16:39.580Z,18.60
2018-09-05T00:19:07.036Z,18.60
2018-09-05T00:21:34.512Z,18.60
2018-09-05T00:24:03.505Z,18.80
2018-09-05T00:26:31.775Z,18.70
2018-09-05T00:28:59.343Z,18.60
2018-09-05T00:31:26.810Z,18.60
2018-09-05T00:33:54.281Z,18.60
2018-09-05T00:36:23.264Z,18.50
2018-09-05T00:38:50.727Z,18.50
2018-09-05T00:41:18.292Z,18.50
2018-09-05T00:43:45.770Z,18.40
2018-09-05T00:46:14.005Z,18.60
2018-09-05T00:48:41.463Z,18.60
2018-09-05T00:51:08.957Z,18.60
2018-09-05T00:53:36.522Z,18.60
2018-09-05T00:56:04.083Z,18.60
2018-09-05T00:58:31.651Z,18.60
2018-09-05T01:00:59.076Z,18.70
2018-09-05T01:03:26.575Z,18.50
2018-09-05T01:05:54.053Z,18.50
2018-09-05T01:08:21.515Z,18.50
2018-09-05T01:10:49.791Z,18.30
2018-09-05T01:13:17.272Z,18.30
2018-09-05T01:15:45.495Z,18.40
2018-09-05T01:18:12.995Z,18.50
2018-09-05T01:20:40.446Z,18.40
2018-09-05T01:23:08.012Z,18.30
2018-09-05T01:25:35.491Z,18.40
2018-09-05T01:28:04.452Z,18.20
2018-09-05T01:30:31.923Z,18.20
2018-09-05T01:32:59.401Z,18.20
2018-09-05T01:35:26.880Z,18.20
2018-09-05T01:37:54.416Z,18.20
2018-09-05T01:40:21.881Z,18.20
2018-09-05T01:42:49.359Z,18.20
2018-09-05T01:45:17.604Z,18.30
2018-09-05T01:47:45.076Z,18.30
2018-09-05T01:50:12.568Z,18.20
2018-09-05T01:52:40.019Z,18.20
2018-09-05T01:55:08.231Z,18.20
2018-09-05T01:57:35.744Z,18.20
2018-09-05T02:00:03.212Z,18.20
2018-09-05T02:02:30.778Z,18.20
2018-09-05T02:04:58.247Z,18.10
2018-09-05T02:07:25.797Z,18.10
2018-09-05T02:09:53.371Z,18.20
2018-09-05T02:12:20.824Z,18.20
2018-09-05T02:14:48.284Z,18.10
2018-09-05T02:17:15.862Z,18.10
2018-09-05T02:19:43.312Z,18.00
2018-09-05T02:22:10.884Z,18.00
2018-09-05T02:24:38.442Z,18.10
2018-09-05T02:27:05.912Z,18.00
2018-09-05T02:29:33.378Z,18.10
2018-09-05T02:32:00.845Z,18.20
2018-09-05T02:34:28.401Z,18.20
2018-09-05T02:36:55.877Z,18.20
2018-09-05T02:39:24.135Z,18.20
2018-09-05T02:41:51.699Z,18.20
2018-09-05T02:44:19.165Z,18.20
2018-09-05T02:49:10.085Z,18.10
2018-09-05T02:51:37.548Z,18.10
2018-09-05T02:54:05.124Z,18.30
2018-09-05T02:56:32.579Z,18.30
2018-09-05T02:59:00.053Z,18.20
2018-09-05T03:01:27.523Z,18.20
2018-09-05T03:03:54.997Z,18.10
2018-09-05T03:06:22.540Z,18.10
2018-09-05T03:08:49.998Z,18.10
2018-09-05T03:11:17.555Z,18.10
2018-09-05T03:13:45.027Z,18.10
2018-09-05T03:16:12.503Z,18.10
2018-09-05T03:18:40.068Z,18.00
2018-09-05T03:21:08.289Z,18.00
2018-09-05T03:23:35.783Z,18.00
2018-09-05T03:26:03.212Z,18.00
2018-09-05T03:28:30.680Z,18.00
2018-09-05T03:30:58.136Z,18.00
2018-09-05T03:33:25.650Z,18.00
2018-09-05T03:35:53.108Z,18.00
2018-09-05T03:38:20.673Z,18.00
2018-09-05T03:40:48.148Z,18.00
2018-09-05T03:43:15.695Z,18.00
2018-09-05T03:45:43.168Z,18.00
2018-09-05T03:48:10.627Z,18.00
2018-09-05T03:50:39.602Z,18.10
2018-09-05T03:53:07.076Z,18.10
2018-09-05T03:55:34.547Z,18.20
2018-09-05T03:58:02.104Z,18.20
2018-09-05T04:00:29.564Z,18.00
2018-09-05T04:02:57.138Z,18.10
2018-09-05T04:05:25.381Z,18.00
2018-09-05T04:07:52.839Z,18.00
2018-09-05T04:10:20.297Z,18.10
2018-09-05T04:12:47.802Z,18.00
2018-09-05T04:15:15.372Z,18.00
2018-09-05T04:17:42.845Z,18.00
2018-09-05T04:20:10.305Z,18.00
2018-09-05T04:22:38.577Z,18.00
2018-09-05T04:25:06.136Z,18.00
2018-09-05T04:27:33.638Z,18.00
2018-09-05T04:30:01.112Z,18.10
2018-09-05T04:32:28.633Z,18.10
2018-09-05T04:34:56.103Z,18.40
2018-09-05T04:37:24.776Z,18.50
2018-09-05T04:39:52.341Z,18.50
2018-09-05T04:42:19.787Z,18.50
2018-09-05T04:44:47.267Z,18.40
2018-09-05T04:47:14.815Z,18.50
2018-09-05T04:49:42.277Z,18.40
2018-09-05T04:52:09.738Z,18.40
2018-09-05T04:54:37.201Z,18.40
2018-09-05T04:57:04.657Z,18.20
2018-09-05T04:59:32.120Z,17.90
2018-09-05T05:01:59.599Z,17.80
2018-09-05T05:04:27.074Z,17.70
2018-09-05T05:06:55.759Z,17.50
2018-09-05T05:09:23.230Z,17.50
2018-09-05T05:11:50.690Z,17.40
2018-09-05T05:14:19.668Z,17.20
2018-09-05T05:16:47.125Z,17.20
2018-09-05T05:19:14.696Z,17.00
2018-09-05T05:21:42.259Z,17.10
2018-09-05T05:24:09.830Z,17.00
2018-09-05T05:26:37.396Z,17.00
2018-09-05T05:29:04.859Z,17.10
2018-09-05T05:31:32.428Z,17.00
2018-09-05T05:33:59.981Z,17.00
2018-09-05T05:36:27.450Z,17.00
2018-09-05T05:38:55.025Z,17.00
2018-09-05T05:41:22.498Z,17.00
2018-09-05T05:43:50.732Z,17.00
2018-09-05T05:46:18.200Z,17.00
2018-09-05T05:48:45.653Z,17.00
2018-09-05T05:51:13.104Z,17.00
2018-09-05T05:53:40.604Z,17.00
2018-09-05T05:56:08.068Z,17.00
2018-09-05T05:58:35.522Z,17.00
2018-09-05T06:01:02.998Z,17.00
2018-09-05T06:03:30.451Z,17.00
2018-09-05T06:05:58.253Z,17.00
2018-09-05T06:08:26.367Z,17.10
2018-09-05T06:10:53.846Z,17.10
2018-09-05T06:13:21.414Z,16.90
2018-09-05T06:15:48.871Z,16.80
2018-09-05T06:18:16.444Z,16.70
2018-09-05T06:20:43.891Z,16.80
2018-09-05T06:23:11.369Z,16.80
2018-09-05T06:25:38.823Z,16.60
2018-09-05T06:28:06.287Z,16.60
2018-09-05T06:30:33.884Z,16.70
2018-09-05T06:33:01.217Z,16.70
2018-09-05T06:35:28.670Z,16.80
2018-09-05T06:37:56.239Z,16.80
2018-09-05T06:40:23.802Z,16.80
2018-09-05T06:42:51.271Z,16.80
2018-09-05T06:45:18.891Z,16.80
2018-09-05T06:47:47.825Z,16.90
2018-09-05T06:50:15.276Z,16.90
2018-09-05T06:52:42.727Z,16.70
2018-09-05T06:55:10.195Z,16.70
2018-09-05T06:57:37.660Z,16.80
2018-09-05T07:00:05.115Z,16.90
2018-09-05T07:02:32.567Z,16.80
2018-09-05T07:05:00.028Z,17.00
2018-09-05T07:07:27.493Z,16.90
2018-09-05T07:09:54.992Z,16.90
2018-09-05T07:12:22.418Z,16.90
2018-09-05T07:14:49.904Z,16.90
2018-09-05T07:17:17.483Z,16.90
2018-09-05T07:19:44.946Z,16.90
2018-09-05T07:22:13.222Z,16.90
2018-09-05T07:24:40.785Z,16.90
2018-09-05T07:27:08.349Z,16.90
2018-09-05T07:29:35.818Z,17.00
2018-09-05T07:32:03.271Z,17.00
2018-09-05T07:34:30.738Z,17.10
2018-09-05T07:36:58.319Z,17.00
2018-09-05T07:39:25.767Z,17.10
2018-09-05T07:41:53.227Z,17.10
2018-09-05T07:44:20.799Z,17.10
2018-09-05T07:46:48.346Z,17.10
2018-09-05T07:49:15.821Z,17.00
2018-09-05T07:51:43.373Z,17.00
2018-09-05T07:54:10.861Z,17.00
2018-09-05T07:56:38.324Z,16.90
2018-09-05T07:59:06.554Z,17.00
2018-09-05T08:01:34.045Z,16.90
2018-09-05T08:04:01.501Z,17.00
2018-09-05T08:06:28.971Z,17.00
2018-09-05T08:08:56.436Z,17.00
2018-09-05T08:11:23.912Z,17.00
2018-09-05T08:13:51.451Z,17.00
2018-09-05T08:16:18.924Z,17.00
2018-09-05T08:18:46.376Z,16.90
2018-09-05T08:21:13.954Z,16.90
2018-09-05T08:23:41.504Z,16.90
2018-09-05T08:26:09.075Z,16.90
2018-09-05T08:28:36.646Z,16.90
2018-09-05T08:31:04.204Z,16.90
2018-09-05T08:33:31.665Z,16.90
2018-09-05T08:35:59.527Z,16.90
2018-09-05T08:38:27.567Z,16.90
2018-09-05T08:40:54.998Z,16.90
2018-09-05T08:43:23.231Z,16.90
2018-09-05T08:45:51.045Z,16.90
2018-09-05T08:48:18.250Z,16.90
2018-09-05T08:50:45.766Z,16.90
2018-09-05T08:53:13.233Z,16.90
2018-09-05T08:55:40.687Z,16.90
2018-09-05T08:58:08.928Z,16.80
2018-09-05T09:00:36.392Z,16.80
2018-09-05T09:03:03.954Z,16.80
2018-09-05T09:05:31.342Z,16.80
2018-09-05T09:07:58.863Z,16.90
2018-09-05T09:10:26.318Z,16.80
2018-09-05T09:12:53.809Z,16.80
2018-09-05T09:15:21.293Z,16.80
2018-09-05T09:17:48.757Z,16.80
2018-09-05T09:20:16.212Z,16.80
2018-09-05T09:22:43.776Z,16.80
2018-09-05T09:25:11.332Z,16.80
2018-09-05T09:27:40.326Z,16.90
2018-09-05T09:30:07.789Z,16.90
2018-09-05T09:32:35.260Z,16.90
2018-09-05T09:35:02.832Z,16.90
2018-09-05T09:37:30.381Z,16.80
2018-09-05T09:39:57.853Z,16.90
2018-09-05T09:42:25.299Z,16.90
2018-09-05T09:44:52.771Z,16.80
2018-09-05T09:47:20.329Z,16.80
2018-09-05T09:49:47.927Z,16.90
2018-09-05T09:52:16.156Z,16.80
2018-09-05T09:54:43.642Z,16.80
2018-09-05T09:57:11.201Z,16.80
2018-09-05T09:59:38.783Z,16.80
2018-09-05T10:02:23.044Z,16.80
2018-09-05T10:05:10.235Z,16.80
2018-09-05T10:07:37.728Z,16.80
2018-09-05T10:10:06.074Z,16.80
2018-09-05T10:12:49.227Z,16.80
2018-09-05T10:15:17.454Z,16.90
2018-09-05T10:17:44.920Z,16.90
2018-09-05T10:20:12.494Z,16.90
2018-09-05T10:22:40.058Z,16.80
2018-09-05T10:25:07.426Z,16.70
2018-09-05T10:27:34.988Z,16.70
2018-09-05T10:30:02.552Z,16.70
2018-09-05T10:32:30.831Z,16.80
2018-09-05T10:34:58.281Z,16.80
2018-09-05T10:37:25.741Z,16.80
2018-09-05T10:39:53.196Z,16.80
2018-09-05T10:42:20.782Z,16.80
2018-09-05T10:44:48.261Z,16.70
2018-09-05T10:47:16.509Z,16.80
2018-09-05T10:49:44.071Z,16.80
2018-09-05T10:52:11.646Z,16.80
2018-09-05T10:54:39.105Z,16.80
2018-09-05T10:57:06.672Z,16.90
2018-09-05T10:59:34.228Z,16.90
2018-09-05T11:02:01.808Z,17.00
2018-09-05T11:04:29.365Z,17.00
2018-09-05T11:06:56.861Z,17.10
2018-09-05T11:09:25.080Z,16.90
2018-09-05T11:11:52.561Z,16.90
2018-09-05T11:14:20.141Z,17.00
2018-09-05T11:16:47.703Z,16.90
2018-09-05T11:19:15.179Z,16.90
2018-09-05T11:21:43.447Z,17.00
2018-09-05T11:24:10.912Z,16.90
2018-09-05T11:26:38.380Z,17.00
2018-09-05T11:29:06.687Z,16.90
2018-09-05T11:31:34.205Z,16.90
2018-09-05T11:34:01.677Z,16.90
2018-09-05T11:36:29.139Z,16.90
2018-09-05T11:38:56.620Z,16.80
2018-09-05T11:41:24.858Z,16.80
2018-09-05T11:43:52.354Z,16.80
2018-09-05T11:46:19.814Z,16.80
2018-09-05T11:48:47.271Z,16.90
2018-09-05T11:51:16.353Z,17.00
2018-09-05T11:53:43.807Z,17.00
2018-09-05T11:56:11.271Z,17.00
2018-09-05T11:58:38.850Z,17.10
2018-09-05T12:01:06.334Z,17.00
2018-09-05T12:03:34.933Z,17.30
2018-09-05T12:06:03.168Z,17.40
2018-09-05T12:08:30.740Z,17.40
2018-09-05T12:10:58.297Z,17.50
2018-09-05T12:13:25.783Z,17.40
2018-09-05T12:15:53.322Z,17.40
2018-09-05T12:18:20.799Z,17.20
2018-09-05T12:20:48.264Z,17.30
2018-09-05T12:23:16.863Z,17.40
2018-09-05T12:25:45.470Z,17.60
2018-09-05T12:28:13.705Z,17.60
2018-09-05T12:30:41.174Z,17.60
2018-09-05T12:33:08.647Z,17.40
2018-09-05T12:35:36.200Z,17.20
2018-09-05T12:38:03.651Z,17.40
2018-09-05T12:40:31.114Z,17.40
2018-09-05T12:42:58.688Z,17.20
2018-09-05T12:45:26.139Z,17.30
2018-09-05T12:47:53.709Z,17.50
2018-09-05T12:50:21.168Z,17.50
2018-09-05T12:52:48.650Z,17.40
2018-09-05T12:55:16.918Z,17.00
2018-09-05T12:57:44.387Z,17.00
2018-09-05T13:00:11.937Z,17.10
2018-09-05T13:02:39.465Z,17.10
2018-09-05T13:05:06.962Z,17.00
2018-09-05T13:07:34.426Z,17.10
2018-09-05T13:10:01.897Z,17.00
2018-09-05T13:12:29.462Z,17.10
2018-09-05T13:14:57.020Z,17.10
2018-09-05T13:17:24.475Z,17.20
2018-09-05T13:19:53.093Z,17.60
2018-09-05T13:22:21.332Z,17.60
2018-09-05T13:24:48.885Z,17.60
2018-09-05T13:27:16.355Z,17.60
2018-09-05T13:29:43.819Z,17.90
2018-09-05T13:32:11.283Z,17.70
2018-09-05T13:34:38.748Z,17.90
2018-09-05T13:37:06.235Z,18.00
2018-09-05T13:39:33.709Z,18.10
2018-09-05T13:42:02.040Z,17.90
2018-09-05T13:44:29.500Z,17.90
2018-09-05T13:46:56.983Z,17.80
2018-09-05T13:49:24.467Z,18.00
2018-09-05T13:51:51.928Z,17.90
2018-09-05T13:54:19.444Z,18.00
2018-09-05T13:56:46.923Z,18.00
2018-09-05T13:59:14.392Z,18.00
2018-09-05T14:01:41.871Z,18.00
2018-09-05T14:04:09.378Z,18.10
2018-09-05T14:06:37.607Z,18.20
2018-09-05T14:09:05.178Z,18.10
2018-09-05T14:11:32.657Z,18.10
2018-09-05T14:14:00.944Z,18.20
2018-09-05T14:16:28.418Z,18.10
2018-09-05T14:18:56.648Z,18.10
2018-09-05T14:21:24.230Z,18.10
2018-09-05T14:23:51.694Z,18.20
2018-09-05T14:26:19.170Z,18.10
2018-09-05T14:28:47.427Z,18.30
2018-09-05T14:31:14.904Z,18.20
2018-09-05T14:33:42.363Z,18.30
2018-09-05T14:36:09.852Z,18.40
2018-09-05T14:38:38.099Z,18.50
2018-09-05T14:41:05.590Z,18.50
2018-09-05T14:43:34.255Z,18.60
2018-09-05T14:46:01.840Z,18.60
2018-09-05T14:48:30.112Z,18.60
2018-09-05T14:50:57.565Z,18.60
2018-09-05T14:53:25.064Z,18.70
2018-09-05T14:55:53.311Z,18.60
2018-09-05T14:58:20.870Z,18.60
2018-09-05T15:00:49.852Z,18.40
2018-09-05T15:03:17.314Z,18.40
2018-09-05T15:05:46.356Z,18.40
2018-09-05T15:08:15.009Z,18.40
2018-09-05T15:10:42.473Z,18.40
2018-09-05T15:13:09.931Z,18.50
2018-09-05T15:15:37.503Z,18.50
2018-09-05T15:18:04.966Z,18.60
2018-09-05T15:20:32.423Z,18.70
2018-09-05T15:22:59.888Z,18.70
2018-09-05T15:25:27.449Z,18.60
2018-09-05T15:27:54.908Z,18.60
2018-09-05T15:30:22.359Z,18.50
2018-09-05T15:32:49.818Z,18.60
2018-09-05T15:35:17.307Z,18.60
2018-09-05T15:37:44.868Z,18.60
2018-09-05T15:40:12.427Z,18.60
2018-09-05T15:42:39.893Z,18.70
2018-09-05T15:45:07.347Z,18.80
2018-09-05T15:47:35.998Z,18.80
2018-09-05T15:50:03.514Z,18.80
2018-09-05T15:52:30.925Z,18.80
2018-09-05T15:54:58.462Z,18.80
2018-09-05T15:57:26.704Z,18.80
2018-09-05T15:59:54.200Z,18.80
2018-09-05T16:02:22.432Z,18.80
2018-09-05T16:04:49.899Z,18.80
2018-09-05T16:07:17.369Z,18.80
2018-09-05T16:09:44.947Z,18.70
2018-09-05T16:12:12.413Z,18.80
2018-09-05T16:14:39.886Z,18.80
2018-09-05T16:17:08.143Z,18.80
2018-09-05T16:19:35.596Z,18.80
2018-09-05T16:22:03.052Z,18.70
2018-09-05T16:24:30.516Z,18.70
2018-09-05T16:26:58.111Z,18.80
2018-09-05T16:29:25.561Z,18.70
2018-09-05T16:31:53.041Z,18.60
2018-09-05T16:34:21.276Z,18.50
2018-09-05T16:36:48.756Z,18.50
2018-09-05T16:39:16.329Z,18.50
2018-09-05T16:41:43.898Z,18.50
2018-09-05T16:44:11.359Z,18.50
2018-09-05T16:46:38.921Z,18.50
2018-09-05T16:49:06.394Z,18.60
2018-09-05T16:51:33.858Z,18.70
2018-09-05T16:54:02.818Z,18.60
2018-09-05T16:56:30.287Z,18.60
2018-09-05T16:58:57.752Z,18.60
2018-09-05T17:01:25.322Z,18.50
2018-09-05T17:03:52.781Z,18.60
2018-09-05T17:06:20.354Z,18.50
2018-09-05T17:08:47.913Z,18.40
2018-09-05T17:11:15.459Z,18.40
2018-09-05T17:13:42.848Z,18.40
2018-09-05T17:16:10.318Z,18.50
2018-09-05T17:18:37.855Z,18.50
2018-09-05T17:21:05.318Z,18.50
2018-09-05T17:23:32.810Z,18.60
2018-09-05T17:26:00.254Z,18.60
2018-09-05T17:28:27.900Z,18.50
2018-09-05T17:30:55.280Z,18.50
2018-09-05T17:33:22.902Z,18.70
2018-09-05T17:35:50.400Z,18.50
2018-09-05T17:38:17.870Z,18.50
2018-09-05T17:40:45.344Z,18.50
2018-09-05T17:43:12.816Z,18.50
2018-09-05T17:45:41.075Z,18.50
2018-09-05T17:48:08.639Z,18.50
2018-09-05T17:50:36.102Z,18.50
2018-09-05T17:53:03.555Z,18.50
2018-09-05T17:55:31.020Z,18.40
2018-09-05T17:57:58.479Z,18.40
2018-09-05T18:00:25.947Z,18.40
2018-09-05T18:02:53.419Z,18.40
2018-09-05T18:05:20.884Z,18.40
2018-09-05T18:07:48.348Z,18.40
2018-09-05T18:10:15.816Z,18.40
2018-09-05T18:12:44.039Z,18.50
2018-09-05T18:15:11.502Z,18.40
2018-09-05T18:17:38.964Z,18.40
2018-09-05T18:20:06.428Z,18.50
2018-09-05T18:22:33.921Z,18.40
2018-09-05T18:25:01.488Z,18.50
2018-09-05T18:27:28.962Z,18.50
2018-09-05T18:29:56.428Z,18.50
2018-09-05T18:32:23.891Z,18.50
2018-09-05T18:34:51.376Z,18.50
2018-09-05T18:37:19.596Z,18.50
2018-09-05T18:39:47.089Z,18.50
2018-09-05T18:42:15.321Z,18.50
2018-09-05T18:44:43.996Z,18.40
2018-09-05T18:47:12.342Z,18.40
2018-09-05T18:49:39.897Z,18.40
2018-09-05T18:52:07.371Z,18.40
2018-09-05T18:54:34.921Z,18.40
2018-09-05T18:57:02.392Z,18.30
2018-09-05T18:59:29.951Z,18.40
2018-09-05T19:01:57.414Z,18.40
2018-09-05T19:04:24.866Z,18.40
2018-09-05T19:06:52.341Z,18.30
2018-09-05T19:09:19.907Z,18.20
2018-09-05T19:11:47.364Z,18.20
2018-09-05T19:14:14.857Z,18.30
2018-09-05T19:16:42.397Z,18.30
2018-09-05T19:19:09.905Z,18.20
2018-09-05T19:21:37.361Z,18.20
2018-09-05T19:24:04.817Z,18.20
2018-09-05T19:26:33.151Z,18.00
2018-09-05T19:29:00.628Z,18.00
2018-09-05T19:31:28.096Z,18.00
2018-09-05T19:33:55.640Z,18.00
2018-09-05T19:36:23.105Z,17.90
2018-09-05T19:38:50.582Z,18.00
2018-09-05T19:41:18.031Z,18.00
2018-09-05T19:43:45.505Z,18.00
2018-09-05T19:46:13.051Z,17.90
2018-09-05T19:48:40.618Z,18.10
2018-09-05T19:51:08.079Z,18.10
2018-09-05T19:53:35.535Z,18.00
2018-09-05T19:56:03.820Z,17.90
2018-09-05T19:58:31.287Z,17.90
2018-09-05T20:00:58.763Z,17.90
2018-09-05T20:03:26.228Z,17.80
2018-09-05T20:05:53.684Z,17.90
2018-09-05T20:08:21.245Z,17.80
2018-09-05T20:10:48.791Z,17.90
2018-09-05T20:13:16.273Z,17.90
2018-09-05T20:15:43.732Z,17.90
2018-09-05T20:18:11.201Z,17.90
2018-09-05T20:20:38.748Z,17.90
2018-09-05T20:23:06.205Z,17.90
2018-09-05T20:25:33.672Z,17.80
2018-09-05T20:28:01.135Z,17.90
2018-09-05T20:30:28.602Z,17.90
2018-09-05T20:32:56.079Z,17.90
2018-09-05T20:35:23.536Z,17.80
2018-09-05T20:37:51.092Z,17.80
2018-09-05T20:40:18.652Z,17.80
2018-09-05T20:42:46.232Z,17.80
2018-09-05T20:45:13.701Z,17.80
2018-09-05T20:47:41.250Z,17.80
2018-09-05T20:50:08.805Z,17.80
2018-09-05T20:52:36.262Z,17.80
2018-09-05T20:55:03.842Z,17.80
2018-09-05T20:57:31.312Z,17.80
2018-09-05T20:59:58.762Z,17.90
2018-09-05T21:02:26.223Z,17.90
2018-09-05T21:04:53.795Z,17.80
2018-09-05T21:07:21.264Z,17.80
2018-09-05T21:09:49.478Z,17.80
2018-09-05T21:12:16.991Z,17.80
2018-09-05T21:14:44.455Z,17.80
2018-09-05T21:17:11.916Z,17.90
2018-09-05T21:19:39.500Z,17.90
2018-09-05T21:22:06.966Z,17.90
2018-09-05T21:24:34.505Z,17.90
2018-09-05T21:27:01.963Z,17.80
2018-09-05T21:29:29.416Z,17.80
2018-09-05T21:31:56.883Z,17.80
2018-09-05T21:34:24.354Z,17.80
2018-09-05T21:36:51.921Z,17.80
2018-09-05T21:39:19.390Z,17.80
2018-09-05T21:41:46.860Z,17.80
2018-09-05T21:44:14.408Z,17.80
2018-09-05T21:46:41.970Z,17.80
2018-09-05T21:49:09.546Z,17.80
2018-09-05T21:51:37.096Z,17.70
2018-09-05T21:54:04.558Z,17.70
2018-09-05T21:56:32.020Z,17.80
2018-09-05T21:58:59.480Z,17.80
2018-09-05T22:01:27.043Z,17.70
2018-09-05T22:03:54.509Z,17.80
2018-09-05T22:06:22.083Z,17.60
2018-09-05T22:08:49.642Z,17.60
2018-09-05T22:11:17.100Z,17.60
2018-09-05T22:13:44.690Z,17.60
2018-09-05T22:16:12.233Z,17.70
2018-09-05T22:18:39.705Z,17.60
2018-09-05T22:21:07.266Z,17.60
2018-09-05T22:23:34.820Z,17.60
2018-09-05T22:26:02.392Z,17.70
2018-09-05T22:28:30.015Z,17.70
2018-09-05T22:30:57.470Z,17.60
2018-09-05T22:35:50.376Z,17.60
2018-09-05T22:38:17.860Z,17.70
2018-09-05T22:40:45.333Z,17.70
2018-09-05T22:43:34.538Z,17.60
2018-09-05T22:46:13.963Z,17.60
2018-09-05T22:48:41.416Z,17.60
2018-09-05T22:51:29.322Z,17.60
2018-09-05T22:54:14.996Z,17.50
2018-09-05T22:59:34.978Z,17.50
2018-09-05T23:02:02.440Z,17.50
2018-09-05T23:04:29.901Z,17.50
2018-09-05T23:06:57.359Z,17.40
2018-09-05T23:09:24.837Z,17.50
2018-09-05T23:11:53.801Z,17.50
2018-09-05T23:14:21.286Z,17.50
2018-09-05T23:16:56.605Z,17.40
2018-09-05T23:19:23.992Z,17.40
2018-09-05T23:21:51.547Z,17.30
2018-09-05T23:24:19.109Z,17.30
2018-09-05T23:26:46.567Z,17.40
2018-09-05T23:29:14.144Z,17.40
2018-09-05T23:31:42.369Z,17.40
2018-09-05T23:34:09.831Z,17.40
2018-09-05T23:36:37.292Z,17.40
2018-09-05T23:39:04.763Z,17.40
2018-09-05T23:41:32.229Z,17.30
2018-09-05T23:43:59.685Z,17.30
2018-09-05T23:46:27.139Z,17.20
2018-09-05T23:48:54.646Z,17.30
2018-09-05T23:51:22.117Z,17.30
2018-09-05T23:53:49.673Z,17.40
2018-09-05T23:56:17.138Z,17.30
2018-09-05T23:58:44.610Z,17.30
